Yantisville, Illinois
Current Conditions -  °F | °C
As of 4:54 PM on Saturday 25 Oct 2014 (Local Time) from KDEC Reporting Station
Clear Clear  
Wind Chill: 75°   Ceiling: Unl
Heat Index: 75°   Visibility: 10mi
Dew Point: 47°   Wind: 9mph
Humidity: 37%   Direction: 320°NW
Pressure: 29.99"   Gusts: NA
Location:  39.5113°N, 88.7629°W
Report Text: KDEC 252154Z 32008KT 10SM CLR 24/08 A2999 RMK AO2 SLP152 T02390083
Loading
Personal Weather Stations






























Interactive Weather Map
Tropical Storm Tracking
New forecast layout! Learn more

10-Day Weather Forecast

Advertisements
Track Severe Weather on mobile